Αναφορές METAR Αεροδρομίων

 

LGTS - THESSALONIKI - GREECE
Ενημερώθηκε: 20/01/2019 00:50
Μερικώς νεφελώδης
Μερικώς νεφελώδης
 Ανεμος από varies
Ανεμος: varies 4 km/h
Θερμοκρασία: 4°C
Σημ. Δρόσου: 2°C
Υγρασία: 87%
Βαρόμετρο: 1018 hPa
Clouds: Μερικώς νεφελώδης
Visibility: 8 km
Cloud details: Αραιές Νεφώσεις 244 m
Μερικώς νεφελώδης 610 m
2019/01/19 22:50 LGTS 192250Z VRB02KT 8000 FEW008 SCT020 04/02 Q1018 NOSIG
LGLR - LARTISA - GREECE
Ενημερώθηκε: 20/01/2019 00:50
Μερικώς νεφελώδης
Μερικώς νεφελώδης
 Ανεμος από calm
Ανεμος: Απνοια
Θερμοκρασία: 7°C
Σημ. Δρόσου: 5°C
Υγρασία: 87%
Βαρόμετρο: 1017 hPa
Clouds: Μερικώς νεφελώδης
Visibility: 10 km
Cloud details: Αραιές Νεφώσεις 914 m
Μερικώς νεφελώδης 2438 m
2019/01/19 22:50 LGLR 192250Z 00000KT 9999 FEW030 SCT080 07/05 Q1017 RMK BKN180 BLU
 
LGKZ - KOZANI - GREECE
Ενημερώθηκε: 19/01/2019 13:50
NOT Current
Μερικώς νεφελώδης
Μερικώς νεφελώδης
 Ανεμος από calm
Ανεμος: Απνοια
Θερμοκρασία: 7°C
Σημ. Δρόσου: 2°C
Υγρασία: 71%
Βαρόμετρο: 1016 hPa
Clouds: Μερικώς νεφελώδης
Visibility: 10 km
Cloud details: Μερικώς νεφελώδης 610 m
Μερικώς νεφελώδης 2134 m
2019/01/19 11:50 LGKZ 191150Z 00000KT 9999 SCT020 SCT070 07/02 Q1016
LGKV - KAVALA - GREECE
Ενημερώθηκε: 19/01/2019 20:50
NOT Current
Σχεδόν νεφελώδης
Σχεδόν νεφελώδης
 Ανεμος από ΑΒΑ
Ανεμος: ΑΒΑ 7 km/h
Θερμοκρασία: 8°C
Wind Chill: 7°C
Σημ. Δρόσου: 5°C
Υγρασία: 82%
Βαρόμετρο: 1018 hPa
Clouds: Σχεδόν νεφελώδης
Visibility: 10 km
Cloud details: Αραιές Νεφώσεις 762 m
Σχεδόν νεφελώδης 2438 m
2019/01/19 18:50 LGKV 191850Z 06004KT 9999 FEW025 BKN080 08/05 Q1018
 
LGIO - IOANNINA - GREECE
Ενημερώθηκε: 19/01/2019 21:50
NOT Current
Ασθενής βροχή, Σχεδόν νεφελώδης
Ασθενής βροχή, Σχεδόν νεφελώδης
 Ανεμος από varies
Ανεμος: varies 0 km/h
Θερμοκρασία: 6°C
Σημ. Δρόσου: 6°C
Υγρασία: 100%
Βαρόμετρο: 1015 hPa
Περίληψη: Ασθενής βροχή
Clouds: Σχεδόν νεφελώδης
Visibility: 10 km
Cloud details: Αραιές Νεφώσεις 183 m
Σχεδόν νεφελώδης 914 m
Σχεδόν νεφελώδης 2134 m
2019/01/19 19:50 LGIO 191950Z /////KT 9999 -RA FEW006 BKN030 BKN070 06/06 Q1015
LGBL - BOLOS - GREECE
Ενημερώθηκε: 20/01/2019 00:50
Σχεδόν νεφελώδης
Σχεδόν νεφελώδης
 Ανεμος από Δ
Ανεμος: Δ 7 km/h
Θερμοκρασία: 6°C
Wind Chill: 4°C
Σημ. Δρόσου: 5°C
Υγρασία: 93%
Βαρόμετρο: 1017 hPa
Clouds: Σχεδόν νεφελώδης
Visibility: 10 km
Cloud details: Αραιές Νεφώσεις 762 m
Σχεδόν νεφελώδης 2438 m
2019/01/19 22:50 LGBL 192250Z 28004KT 9999 FEW025 BKN080 06/05 Q1017
 
LGMT - MITILINI - GREECE
Ενημερώθηκε: 19/01/2019 21:50
NOT Current
Σχεδόν νεφελώδης
Σχεδόν νεφελώδης
 Ανεμος από ΝΝΔ
Ανεμος: ΝΝΔ 11 km/h
Θερμοκρασία: 11°C
Σημ. Δρόσου: 8°C
Υγρασία: 82%
Βαρόμετρο: 1020 hPa
Clouds: Σχεδόν νεφελώδης
Visibility: 10 km
Cloud details: Σχεδόν νεφελώδης 914 m
2019/01/19 19:50 LGMT 191950Z 20006KT 9999 BKN030 11/08 Q1020
LGAV - ATHENS - GREECE
Ενημερώθηκε: 20/01/2019 00:50
Σχεδόν νεφελώδης
Σχεδόν νεφελώδης
 Ανεμος από varies
Ανεμος: varies 2 km/h
Θερμοκρασία: 9°C
Σημ. Δρόσου: 7°C
Υγρασία: 87%
Βαρόμετρο: 1018 hPa
Clouds: Σχεδόν νεφελώδης
Visibility: 10 km
Cloud details: Μερικώς νεφελώδης 914 m
Σχεδόν νεφελώδης 2134 m
2019/01/19 22:50 LGAV 192250Z VRB01KT 9999 SCT030 BKN070 09/07 Q1018 NOSIG
 
LGRP - RODOS - GREECE
Ενημερώθηκε: 20/01/2019 00:50
Σχεδόν νεφελώδης
Σχεδόν νεφελώδης
 Ανεμος από ΑΝΑ
Ανεμος: ΑΝΑ 7 km/h
Θερμοκρασία: 12°C
Σημ. Δρόσου: 10°C
Υγρασία: 88%
Βαρόμετρο: 1020 hPa
Clouds: Σχεδόν νεφελώδης
Visibility: 10 km
Cloud details: Σχεδόν νεφελώδης 610 m
2019/01/19 22:50 LGRP 192250Z 11004KT 9999 BKN020 12/10 Q1020 NOSIG
LGIR - HRAKLIO/KRITI - GREECE
Ενημερώθηκε: 20/01/2019 00:50
Αραιές Νεφώσεις
Αραιές Νεφώσεις
 Ανεμος από Ν
Ανεμος: Ν 20 km/h
Θερμοκρασία: 12°C
Σημ. Δρόσου: 8°C
Υγρασία: 77%
Βαρόμετρο: 1018 hPa
Clouds: Αραιές Νεφώσεις
Visibility: 10 km
Cloud details: Αραιές Νεφώσεις 762 m
2019/01/19 22:50 LGIR 192250Z 17011KT 9999 FEW025 12/08 Q1018 NOSIG
 
LGMK - MIKONOS - GREECE
Ενημερώθηκε: 19/01/2019 19:50
NOT Current
Μερικώς νεφελώδης
Μερικώς νεφελώδης
 Ανεμος από calm
Ανεμος: Απνοια
Θερμοκρασία: 12°C
Σημ. Δρόσου: 9°C
Υγρασία: 82%
Βαρόμετρο: 1018 hPa
Clouds: Μερικώς νεφελώδης
Visibility: 10 km
Cloud details: Μερικώς νεφελώδης 610 m
2019/01/19 17:50 LGMK 191750Z 00000KT 9999 SCT020 12/09 Q1018
LGKR - KERKIRA - GREECE
Ενημερώθηκε: 20/01/2019 00:50
Ασθενής βροχή, Σχεδόν νεφελώδης
Ασθενής βροχή, Σχεδόν νεφελώδης
 Ανεμος από ΑΝΑ
Ανεμος: ΑΝΑ 26 km/h
Θερμοκρασία: 11°C
Σημ. Δρόσου: 9°C
Υγρασία: 88%
Βαρόμετρο: 1014 hPa
Περίληψη: Ασθενής βροχή
Clouds: Σχεδόν νεφελώδης
Visibility: 10 km
Cloud details: Αραιές Νεφώσεις 549 m
Σχεδόν νεφελώδης 914 m
Σχεδόν νεφελώδης 2438 m
2019/01/19 22:50 LGKR 192250Z 11014KT 9999 -RA FEW018TCU BKN030 BKN080 11/09 Q1014 TEMPO RA